Al-Shuaiba, Kuwait

3:16 PM AST on January 25, 2015 (GMT +0300)
Julai'a | Change Station
CLOSE
Current Station
Personal Weather Station
Location: Kuwait City, AL ASIMAH
Elevation: 26 ft
Nearby Weather Stations

Elev 26 ft 28.92 °N, 48.21 °E | Updated 13 seconds ago

Clear
Clear
68.9 °F
Feels Like 68.9 °F
N
2.7
Wind Variable Wind from NE
Gusts 4.9 mph

Today
High -- | Low -- °F
--% Chance of Precip.
Yesterday
High -- | Low -- °F
Precip. -- in
6:39 AM 5:19 PM
Waxing Crescent, 31% visible
Pressure 30.21 in
Visibility 4.3 miles
Clouds
Dew Point 65 °F
Humidity 88%
Rainfall 0.00 in
Snow Depth Not available.
UV Not available.
Pollen Not available.
Air Quality Not available.
Flu Activity Not available.
METAR OKBK 251200Z 06004KT 7000 NSC 22/10 Q1023 NOSIG

More Conditions Fewer Conditions

Pressure 30.21 in
Visibility 4.3 miles
Clouds
Dew Point 65 °F
Humidity 88%
Rainfall 0.00 in
Snow Depth Not available.
UV Not available.
Pollen Not available.
Air Quality Not available.
Flu Activity Not available.
METAR OKBK 251200Z 06004KT 7000 NSC 22/10 Q1023 NOSIG

More Conditions Fewer Conditions

10-Day Weather Forecast

Almanac

Astronomy

Jan. 25, 2015 Rise Set
Actual Time
Civil Twilight
Nautical Twilight
Astronomical Twilight
Moon
Length of Visible Light
Length of Day
Tomorrow will be .
, % of the Moon is Illuminated

Today's Extremes

Country Highs Country Lows

Community

WunderPhotos

Upload Photos

1,789,873 photos uploaded!

WunderBlogs® & News

Nearby

Air Quality

  Air Quality AQ Index Pollutant
Not available.

Snow Depth

Station Depth Elevation

Earthquake Activity

City Distance Mag. Time & Date
Minimum magnitude displayed is 2.5.

Coastal Water Temperatures

Place Temperature

Nearby Weather Stations